Time;durP1;ratioP1;P1;durP2;ratioP2;P2;SDS_P1;SDS_P2;PMS_P1;PMS_P2;Temp;Humidity;BMP_temperature;BMP_pressure;BME280_temperature;BME280_humidity;BME280_pressure;Samples;Min_cycle;Max_cycle;Signal;HPM_P1;HPM_P2
2022/05/04 00:01:23;;;;;;;3.80;1.70;;;9.60;71.30;;;;;;4952345;29;20039;-81
2022/05/04 00:03:49;;;;;;;2.92;1.95;;;9.60;71.30;;;;;;4959100;28;20418;-80
2022/05/04 00:06:15;;;;;;;5.43;2.05;;;9.70;71.30;;;;;;4956168;28;20480;-80
2022/05/04 00:08:41;;;;;;;3.97;1.98;;;9.70;71.30;;;;;;4955778;28;20039;-80
2022/05/04 00:11:07;;;;;;;5.03;1.63;;;9.70;71.30;;;;;;4955703;28;20027;-80
2022/05/04 00:13:34;;;;;;;3.28;2.33;;;9.70;71.40;;;;;;4955627;28;20050;-80
2022/05/04 00:16:01;;;;;;;3.83;2.00;;;9.80;71.60;;;;;;4973237;28;20034;-80
2022/05/04 00:18:29;;;;;;;1.88;1.48;;;9.80;71.50;;;;;;4973215;28;20536;-82
2022/05/04 00:20:55;;;;;;;;;;;9.70;71.60;;;;;;4973424;28;20105;-80
2022/05/04 00:23:21;;;;;;;4.45;1.63;;;9.80;71.10;;;;;;4955733;28;19914;-80
2022/05/04 00:25:47;;;;;;;5.82;1.98;;;9.70;71.60;;;;;;4972408;28;20023;-80
2022/05/04 00:28:12;;;;;;;4.30;1.58;;;9.80;71.90;;;;;;4955662;28;20110;-80
2022/05/04 00:30:38;;;;;;;3.22;1.92;;;9.70;72.00;;;;;;4972860;28;20473;-80
2022/05/04 00:33:04;;;;;;;5.10;2.38;;;9.70;72.20;;;;;;4973067;28;20027;-80
2022/05/04 00:35:30;;;;;;;6.75;1.90;;;9.70;72.40;;;;;;4973126;28;20031;-82
2022/05/04 00:37:56;;;;;;;3.17;2.38;;;9.70;72.60;;;;;;4973076;28;20057;-82
2022/05/04 00:40:22;;;;;;;5.32;1.65;;;9.70;72.80;;;;;;4972742;28;20051;-80
2022/05/04 00:42:48;;;;;;;3.13;1.58;;;9.70;72.80;;;;;;4972781;28;20023;-80
2022/05/04 00:45:13;;;;;;;6.03;1.95;;;9.60;73.10;;;;;;4955454;28;20046;-81
2022/05/04 00:47:39;;;;;;;2.45;1.77;;;9.60;73.50;;;;;;4972779;28;20051;-80
2022/05/04 00:50:06;;;;;;;4.15;2.38;;;9.60;73.90;;;;;;4972870;28;20451;-80
2022/05/04 00:52:37;;;;;;;2.72;2.33;;;9.60;74.00;;;;;;4973384;28;20388;-80
2022/05/04 00:55:07;;;;;;;4.55;2.05;;;9.50;74.30;;;;;;4973024;28;20033;-79
2022/05/04 01:00:23;;;;;;;3.60;1.85;;;9.60;74.80;;;;;;4974369;28;20033;-80
2022/05/04 01:02:49;;;;;;;5.22;2.45;;;9.60;74.90;;;;;;4979163;28;20026;-78
2022/05/04 01:05:15;;;;;;;6.45;2.60;;;9.60;75.10;;;;;;4975204;28;20511;-81
2022/05/04 01:07:44;;;;;;;3.85;2.33;;;9.60;75.10;;;;;;4974273;28;20035;-81
2022/05/04 01:10:12;;;;;;;5.63;2.60;;;9.50;75.10;;;;;;4975043;28;20113;-81
2022/05/04 01:12:52;;;;;;;2.53;1.80;;;9.50;75.30;;;;;;4973296;28;20019;-80
2022/05/04 01:15:20;;;;;;;4.60;2.58;;;9.30;75.40;;;;;;4955677;28;20526;-80
2022/05/04 01:17:47;;;;;;;2.63;1.92;;;9.20;75.80;;;;;;4973134;28;20038;-78
2022/05/04 01:20:14;;;;;;;3.20;2.47;;;9.00;75.70;;;;;;4972921;28;20106;-78
2022/05/04 01:22:40;;;;;;;3.88;2.10;;;8.90;76.10;;;;;;4973038;28;20035;-80
2022/05/04 01:25:07;;;;;;;3.85;2.45;;;8.80;76.60;;;;;;4957045;28;20085;-79
2022/05/04 01:27:33;;;;;;;5.03;2.13;;;8.70;77.10;;;;;;4957937;28;20023;-81
2022/05/04 01:30:00;;;;;;;3.50;2.33;;;8.60;77.50;;;;;;4974571;28;20378;-80
2022/05/04 01:32:26;;;;;;;3.55;2.33;;;8.60;78.10;;;;;;4965457;28;20026;-79
2022/05/04 01:34:52;;;;;;;5.43;2.35;;;8.50;78.30;;;;;;4980701;28;20069;-79
2022/05/04 01:37:18;;;;;;;7.03;2.67;;;8.50;78.70;;;;;;4977122;28;20059;-78
2022/05/04 01:39:44;;;;;;;5.18;2.60;;;8.40;79.50;;;;;;4976220;28;20023;-79
2022/05/04 01:42:13;;;;;;;3.13;2.30;;;8.30;79.10;;;;;;4957012;29;20140;-78
2022/05/04 01:44:41;;;;;;;5.97;2.83;;;8.30;79.30;;;;;;4960561;28;20031;-78
2022/05/04 01:47:11;;;;;;;2.80;2.00;;;8.20;79.50;;;;;;4975493;28;20023;-78
2022/05/04 01:49:37;;;;;;;5.25;2.22;;;8.20;79.90;;;;;;4958804;28;20452;-79
2022/05/04 01:52:03;;;;;;;4.18;2.60;;;8.20;80.00;;;;;;4975786;28;20106;-79
2022/05/04 01:54:29;;;;;;;4.40;2.53;;;8.10;80.00;;;;;;4975730;28;20082;-77
2022/05/04 01:56:55;;;;;;;5.78;2.08;;;8.10;80.20;;;;;;4975669;28;20437;-77
2022/05/04 01:59:21;;;;;;;5.40;2.38;;;8.10;80.00;;;;;;4979712;28;20054;-80
2022/05/04 02:01:47;;;;;;;4.10;2.67;;;8.10;80.00;;;;;;4964853;28;20448;-79
2022/05/04 02:04:14;;;;;;;3.55;2.30;;;8.10;79.90;;;;;;4976754;28;20074;-78
2022/05/04 02:06:40;;;;;;;5.60;2.28;;;8.10;79.90;;;;;;4978933;28;20097;-77
2022/05/04 02:09:06;;;;;;;6.60;2.45;;;8.00;79.70;;;;;;4982650;28;20106;-77
2022/05/04 02:11:33;;;;;;;7.68;2.08;;;8.00;79.90;;;;;;4981751;28;20023;-78
2022/05/04 02:14:00;;;;;;;5.10;2.15;;;8.10;79.90;;;;;;4958472;28;20058;-78
2022/05/04 02:16:26;;;;;;;3.53;2.22;;;8.00;79.70;;;;;;4975524;28;20091;-78
2022/05/04 02:18:52;;;;;;;2.45;1.50;;;8.10;79.40;;;;;;4975268;28;20034;-78
2022/05/04 02:21:18;;;;;;;5.53;2.00;;;8.10;78.40;;;;;;4975160;28;20101;-78
2022/05/04 02:23:44;;;;;;;5.35;2.08;;;8.10;77.90;;;;;;4975146;28;20409;-78
2022/05/04 02:26:10;;;;;;;4.43;1.95;;;8.20;77.50;;;;;;4975116;28;20035;-79
2022/05/04 02:28:36;;;;;;;4.90;1.85;;;8.20;76.70;;;;;;4974879;28;20031;-78
2022/05/04 02:31:02;;;;;;;3.08;1.80;;;8.20;76.50;;;;;;4974736;28;20034;-79
2022/05/04 02:33:28;;;;;;;3.05;1.75;;;8.20;76.20;;;;;;4974922;28;20105;-79
2022/05/04 02:38:38;;;;;;;2.20;1.70;;;8.30;75.80;;;;;;4974864;28;20567;-77
2022/05/04 02:41:04;;;;;;;6.45;1.67;;;8.50;74.90;;;;;;4974738;28;20064;-79
2022/05/04 02:43:30;;;;;;;3.30;1.52;;;8.70;74.40;;;;;;4974822;28;20082;-78
2022/05/04 02:45:57;;;;;;;7.90;4.22;;;9.00;74.10;;;;;;4974582;28;20539;-78
2022/05/04 02:48:22;;;;;;;3.23;1.30;;;9.30;73.30;;;;;;4974449;28;20046;-79
2022/05/04 02:50:48;;;;;;;4.15;1.48;;;9.50;71.90;;;;;;4957404;28;20086;-79
2022/05/04 02:53:14;;;;;;;8.98;1.88;;;9.50;70.30;;;;;;4974524;28;20039;-79
2022/05/04 02:55:40;;;;;;;1.05;0.90;;;9.40;69.80;;;;;;4957225;28;20031;-80
2022/05/04 02:58:06;;;;;;;1.83;1.05;;;9.40;69.70;;;;;;4974677;28;20495;-80
2022/05/04 03:00:32;;;;;;;2.47;1.65;;;9.20;69.90;;;;;;4975223;28;20022;-80
2022/05/04 03:02:58;;;;;;;2.35;1.13;;;9.00;70.50;;;;;;4975162;28;20042;-80
2022/05/04 03:05:24;;;;;;;2.35;1.45;;;8.90;71.20;;;;;;4957371;28;20395;-80
2022/05/04 03:07:51;;;;;;;3.65;1.65;;;8.70;72.00;;;;;;4974190;28;20045;-80
2022/05/04 03:10:16;;;;;;;2.05;1.38;;;8.60;72.90;;;;;;4974724;28;20118;-82
2022/05/04 03:12:43;;;;;;;2.17;1.10;;;8.40;74.40;;;;;;4975128;28;20054;-83
2022/05/04 03:15:10;;;;;;;2.60;2.03;;;8.20;77.20;;;;;;4965533;28;20098;-79
2022/05/04 03:17:35;;;;;;;4.32;1.88;;;7.80;79.30;;;;;;4982859;28;20022;-78
2022/05/04 03:20:02;;;;;;;4.25;2.72;;;7.50;82.10;;;;;;4975297;28;20027;-80
2022/05/04 03:22:29;;;;;;;3.67;2.10;;;7.20;84.40;;;;;;4974300;28;20053;-81
2022/05/04 03:24:55;;;;;;;;;;;7.10;85.80;;;;;;4957207;28;20027;-81
2022/05/04 03:27:21;;;;;;;4.53;2.88;;;7.00;85.80;;;;;;4973973;28;20023;-79
2022/05/04 03:29:47;;;;;;;4.82;2.63;;;6.80;87.60;;;;;;4973573;28;20039;-79
2022/05/04 03:32:13;;;;;;;3.47;2.13;;;6.70;89.20;;;;;;4956615;28;20029;-80
2022/05/04 03:34:39;;;;;;;2.20;1.60;;;6.70;89.80;;;;;;4948482;28;20031;-79
2022/05/04 03:37:05;;;;;;;5.50;1.90;;;6.60;89.90;;;;;;4956254;28;20121;-79
2022/05/04 03:39:30;;;;;;;3.45;2.75;;;6.60;89.80;;;;;;4973726;28;20034;-79
2022/05/04 03:41:56;;;;;;;3.05;2.20;;;6.60;89.80;;;;;;4973299;28;20030;-80
2022/05/04 03:44:22;;;;;;;5.05;2.63;;;6.60;90.00;;;;;;4973579;28;20521;-78
2022/05/04 03:46:50;;;;;;;5.10;1.88;;;6.60;90.00;;;;;;4972905;28;20058;-78
2022/05/04 03:49:18;;;;;;;4.13;2.83;;;6.60;89.70;;;;;;4956411;28;20058;-80
2022/05/04 03:51:45;;;;;;;3.97;2.25;;;6.60;89.80;;;;;;4973633;28;20075;-80
2022/05/04 03:54:11;;;;;;;7.22;2.70;;;6.60;90.00;;;;;;4956487;28;20491;-78
2022/05/04 03:56:38;;;;;;;5.03;3.08;;;6.60;90.30;;;;;;4973582;28;20034;-78
2022/05/04 03:59:05;;;;;;;4.47;2.10;;;6.70;90.30;;;;;;4973524;28;20038;-79
2022/05/04 04:01:31;;;;;;;2.67;1.88;;;6.80;90.50;;;;;;4973505;28;20532;-80
2022/05/04 04:03:57;;;;;;;2.85;2.22;;;7.00;90.70;;;;;;4956026;28;20114;-80
2022/05/04 04:06:23;;;;;;;5.03;2.10;;;7.30;90.80;;;;;;4955851;28;20062;-80
2022/05/04 04:08:50;;;;;;;4.30;2.05;;;7.40;90.60;;;;;;4967722;28;20039;-80
2022/05/04 04:11:16;;;;;;;3.28;1.58;;;7.60;90.10;;;;;;4965270;28;20030;-79
2022/05/04 04:13:42;;;;;;;3.92;2.17;;;7.80;89.60;;;;;;4973277;28;20035;-78
2022/05/04 04:16:08;;;;;;;4.97;2.40;;;8.00;89.50;;;;;;4955464;28;20501;-80
2022/05/04 04:18:34;;;;;;;4.13;1.70;;;8.30;89.00;;;;;;4954025;29;20484;-83
2022/05/04 04:23:44;;;;;;;3.65;1.80;;;9.00;85.80;;;;;;4954126;29;20123;-81
2022/05/04 04:26:10;;;;;;;3.35;2.00;;;9.40;84.10;;;;;;4971832;28;20145;-82
2022/05/04 04:28:38;;;;;;;4.05;1.83;;;9.50;82.00;;;;;;4955893;28;20118;-82
2022/05/04 04:31:04;;;;;;;3.13;2.30;;;9.40;79.10;;;;;;4955805;28;20066;-80
2022/05/04 04:33:30;;;;;;;2.72;1.90;;;9.30;79.20;;;;;;4973564;28;20045;-82
2022/05/04 04:35:57;;;;;;;2.45;1.67;;;9.20;79.00;;;;;;4973460;28;20485;-82
2022/05/04 04:38:23;;;;;;;3.47;2.22;;;9.10;80.60;;;;;;4955906;28;20031;-81
2022/05/04 04:40:50;;;;;;;3.00;2.38;;;9.10;79.90;;;;;;4981867;28;20057;-82
2022/05/04 04:43:16;;;;;;;3.83;2.20;;;9.10;80.10;;;;;;4988805;28;20027;-81
2022/05/04 04:45:44;;;;;;;2.03;1.58;;;9.10;80.20;;;;;;4971758;28;20045;-79
2022/05/04 04:48:10;;;;;;;3.72;1.85;;;9.10;80.60;;;;;;4973552;28;20055;-81
2022/05/04 04:50:36;;;;;;;3.72;2.13;;;9.20;80.60;;;;;;4974926;28;20485;-80
2022/05/04 04:53:02;;;;;;;2.55;1.50;;;9.30;79.50;;;;;;4972830;28;20023;-81
2022/05/04 04:55:28;;;;;;;4.97;1.73;;;9.50;78.70;;;;;;4973056;28;20090;-80
2022/05/04 04:57:54;;;;;;;3.38;1.45;;;9.50;77.40;;;;;;4973782;28;20060;-82
2022/05/04 05:00:20;;;;;;;6.00;1.90;;;9.30;77.70;;;;;;4976231;28;20073;-80
2022/05/04 05:02:49;;;;;;;7.63;2.28;;;9.40;77.50;;;;;;4977132;28;20107;-80
2022/05/04 05:05:15;;;;;;;2.47;1.80;;;9.40;76.50;;;;;;4962712;28;20047;-83
2022/05/04 05:07:41;;;;;;;4.28;2.10;;;9.30;76.40;;;;;;4977428;28;20045;-83
2022/05/04 05:10:07;;;;;;;5.15;1.63;;;9.40;76.50;;;;;;4976700;28;20473;-83
2022/05/04 05:12:33;;;;;;;3.05;1.73;;;9.40;75.80;;;;;;4977158;28;20044;-82
2022/05/04 05:18:00;;;;;;;4.30;1.88;;;9.60;75.40;;;;;;4881726;29;20222;-81
2022/05/04 05:20:35;;;;;;;3.13;1.30;;;9.70;74.30;;;;;;4974973;28;20038;-82
2022/05/04 05:23:02;;;;;;;1.85;1.20;;;10.10;72.60;;;;;;5010588;28;20022;-81
2022/05/04 05:25:30;;;;;;;2.60;1.30;;;11.20;68.80;;;;;;5001196;28;20052;-81
2022/05/04 05:27:56;;;;;;;2.80;0.73;;;12.60;65.10;;;;;;5001057;28;20143;-80
2022/05/04 05:30:22;;;;;;;4.38;1.85;;;13.20;61.30;;;;;;4995834;28;20075;-82
2022/05/04 05:32:48;;;;;;;2.70;1.25;;;13.10;59.50;;;;;;4985324;28;20019;-81
2022/05/04 05:35:15;;;;;;;4.65;1.60;;;12.60;59.60;;;;;;4994079;28;20452;-82
2022/05/04 05:37:40;;;;;;;2.35;1.20;;;12.30;60.80;;;;;;4995951;28;20022;-82
2022/05/04 05:40:07;;;;;;;1.90;1.50;;;12.80;60.40;;;;;;4992696;28;20484;-82
2022/05/04 05:42:34;;;;;;;4.72;1.80;;;13.10;58.80;;;;;;4958187;28;20436;-82
2022/05/04 05:45:00;;;;;;;3.78;1.88;;;12.70;59.10;;;;;;4975933;28;20468;-81
2022/05/04 05:47:25;;;;;;;2.88;1.48;;;12.10;60.90;;;;;;4975647;28;20083;-80
2022/05/04 05:49:51;;;;;;;2.58;1.60;;;11.50;62.90;;;;;;4976109;28;20054;-80
2022/05/04 05:52:17;;;;;;;2.92;1.83;;;11.00;63.50;;;;;;4959192;28;20027;-82
2022/05/04 05:54:44;;;;;;;3.70;1.58;;;10.50;64.40;;;;;;4977056;28;20388;-79
2022/05/04 05:57:09;;;;;;;4.95;1.20;;;10.10;65.30;;;;;;4960030;28;20023;-80
2022/05/04 05:59:35;;;;;;;6.15;1.63;;;9.90;66.30;;;;;;4982715;28;20127;-82
2022/05/04 06:02:01;;;;;;;2.90;1.58;;;10.10;67.60;;;;;;4994631;28;20030;-81
2022/05/04 06:04:27;;;;;;;3.50;1.08;;;11.60;65.50;;;;;;4977906;28;20018;-80
2022/05/04 06:06:54;;;;;;;1.40;1.10;;;13.70;60.20;;;;;;4994909;28;20061;-80
2022/05/04 06:09:19;;;;;;;1.97;1.10;;;15.70;54.10;;;;;;4976493;28;20039;-83
2022/05/04 06:11:45;;;;;;;1.65;1.13;;;16.90;49.90;;;;;;4995069;28;20022;-83
2022/05/04 06:14:11;;;;;;;3.15;1.55;;;17.30;47.50;;;;;;4979237;28;20026;-84
2022/05/04 06:16:37;;;;;;;4.32;1.48;;;16.30;48.30;;;;;;4996951;28;20023;-84
2022/05/04 06:19:04;;;;;;;5.18;1.15;;;14.70;50.80;;;;;;4995606;28;20137;-84
2022/05/04 06:21:30;;;;;;;4.63;1.60;;;13.40;54.10;;;;;;4995944;28;20018;-82
2022/05/04 06:23:56;;;;;;;5.78;1.90;;;12.40;56.60;;;;;;4996531;28;20030;-85
2022/05/04 06:26:23;;;;;;;6.82;2.10;;;12.00;59.10;;;;;;4980444;28;20086;-79
2022/05/04 06:28:49;;;;;;;3.63;1.50;;;12.10;59.90;;;;;;4975455;28;20042;-82
2022/05/04 06:34:10;;;;;;;4.80;1.45;;;11.10;61.40;;;;;;4975125;28;20452;-81
2022/05/04 06:36:40;;;;;;;4.85;1.20;;;10.10;65.50;;;;;;4975278;28;20034;-83
2022/05/04 06:39:07;;;;;;;2.70;0.85;;;8.80;69.40;;;;;;4957478;28;20041;-82
2022/05/04 06:41:35;;;;;;;4.20;1.20;;;7.80;73.40;;;;;;4974750;28;20018;-81
2022/05/04 06:44:01;;;;;;;2.42;1.10;;;6.90;75.60;;;;;;4957612;28;20031;-81
2022/05/04 06:46:27;;;;;;;3.17;1.40;;;6.60;78.70;;;;;;4974173;28;20031;-81
2022/05/04 06:48:52;;;;;;;2.35;1.40;;;6.30;80.10;;;;;;4974701;28;20061;-81
2022/05/04 06:51:18;;;;;;;3.70;1.13;;;6.30;81.20;;;;;;4975286;28;20544;-84
2022/05/04 06:53:44;;;;;;;5.22;1.40;;;7.40;83.30;;;;;;4974670;28;20388;-83
2022/05/04 06:56:10;;;;;;;4.00;1.33;;;9.70;79.60;;;;;;4957485;28;20034;-83
2022/05/04 06:58:36;;;;;;;3.88;1.10;;;12.20;69.90;;;;;;4957192;28;20118;-82
2022/05/04 07:01:05;;;;;;;4.00;1.50;;;14.70;61.80;;;;;;4975001;28;20027;-82
2022/05/04 07:03:31;;;;;;;5.97;1.80;;;16.80;53.80;;;;;;4956308;28;20492;-82
2022/05/04 07:05:57;;;;;;;4.25;1.88;;;18.00;48.80;;;;;;4974754;28;20090;-82
2022/05/04 07:08:24;;;;;;;2.97;1.60;;;18.90;46.10;;;;;;4975500;28;20472;-82
2022/05/04 07:10:50;;;;;;;4.18;1.58;;;19.30;45.10;;;;;;4974259;28;20030;-81
2022/05/04 07:13:17;;;;;;;5.15;1.83;;;18.70;44.50;;;;;;4974316;28;20030;-84
2022/05/04 07:15:43;;;;;;;3.13;1.80;;;16.80;47.30;;;;;;4974464;28;20027;-83
2022/05/04 07:18:08;;;;;;;4.28;1.58;;;14.90;50.90;;;;;;4974875;28;20022;-82
2022/05/04 07:20:34;;;;;;;1.95;1.40;;;13.40;54.70;;;;;;4973747;28;20590;-82
2022/05/04 07:23:00;;;;;;;2.90;1.48;;;12.30;56.50;;;;;;4974199;28;20049;-81
2022/05/04 07:25:26;;;;;;;1.40;1.30;;;11.70;58.70;;;;;;4974157;28;20019;-81
2022/05/04 07:27:52;;;;;;;1.98;1.48;;;12.80;58.40;;;;;;4956809;28;20062;-82
2022/05/04 07:30:18;;;;;;;4.13;2.33;;;14.60;53.10;;;;;;4974106;28;20357;-81
2022/05/04 07:32:44;;;;;;;3.15;1.70;;;14.70;51.10;;;;;;4973963;28;20447;-81
2022/05/04 07:35:10;;;;;;;2.17;1.50;;;14.10;52.50;;;;;;4973887;28;20033;-82
2022/05/04 07:37:36;;;;;;;2.65;1.77;;;13.40;53.50;;;;;;4958686;28;20022;-81
2022/05/04 07:42:46;;;;;;;2.70;1.85;;;12.50;58.80;;;;;;4963816;29;20030;-81
2022/05/04 07:45:13;;;;;;;3.40;1.60;;;12.80;57.70;;;;;;4958045;29;20463;-79
2022/05/04 07:47:39;;;;;;;3.55;1.23;;;14.20;53.70;;;;;;4954342;29;20114;-83
2022/05/04 07:50:08;;;;;;;2.05;1.35;;;14.30;50.60;;;;;;4955162;29;20412;-82
2022/05/04 07:52:35;;;;;;;3.92;1.50;;;13.50;52.00;;;;;;4960087;28;20052;-82
2022/05/04 07:55:02;;;;;;;2.63;1.35;;;13.60;52.70;;;;;;4956551;28;20053;-83
2022/05/04 07:57:28;;;;;;;2.83;1.42;;;14.50;50.50;;;;;;4973670;28;20022;-81
2022/05/04 08:05:34;;;;;;;2.03;1.00;;;14.80;46.00;;;;;;4973891;28;20156;-82
2022/05/04 08:08:00;;;;;;;3.75;1.40;;;13.50;47.90;;;;;;4973187;28;20530;-82
2022/05/04 08:10:27;;;;;;;4.97;1.35;;;13.20;49.90;;;;;;4973663;28;20492;-81
2022/05/04 08:12:53;;;;;;;2.70;1.38;;;14.80;48.40;;;;;;4973961;28;20030;-84
2022/05/04 08:15:19;;;;;;;2.97;1.20;;;16.80;44.80;;;;;;4973721;28;20030;-82
2022/05/04 08:17:45;;;;;;;2.00;1.73;;;18.10;41.60;;;;;;4974688;28;20026;-81
2022/05/04 08:20:11;;;;;;;5.38;1.60;;;18.10;41.60;;;;;;4957900;28;20019;-82
2022/05/04 08:22:37;;;;;;;3.55;1.80;;;18.80;41.10;;;;;;4974488;28;20109;-82
2022/05/04 08:25:03;;;;;;;2.08;1.58;;;20.30;38.60;;;;;;4972705;28;20487;-81
2022/05/04 08:27:31;;;;;;;4.70;1.30;;;21.30;35.90;;;;;;4973782;28;20400;-82
2022/05/04 08:29:58;;;;;;;6.45;1.80;;;22.00;34.00;;;;;;4973631;28;20061;-81
2022/05/04 08:32:29;;;;;;;6.72;2.22;;;22.80;33.30;;;;;;4957890;28;20027;-81
2022/05/04 08:34:58;;;;;;;4.10;1.70;;;22.40;32.90;;;;;;4962116;28;20048;-82
2022/05/04 08:37:24;;;;;;;6.00;2.35;;;23.00;33.30;;;;;;4959626;28;20102;-83
2022/05/04 08:39:50;;;;;;;2.92;1.70;;;22.20;33.30;;;;;;4977160;28;20149;-81
2022/05/04 08:42:18;;;;;;;2.47;1.35;;;20.00;35.50;;;;;;4976747;28;20110;-81
2022/05/04 08:44:47;;;;;;;2.00;1.33;;;17.10;39.90;;;;;;4976083;28;20481;-81
2022/05/04 08:47:15;;;;;;;1.83;1.15;;;14.60;43.20;;;;;;4959402;28;20180;-83
2022/05/04 08:49:41;;;;;;;3.75;1.55;;;12.80;46.10;;;;;;4959346;28;20485;-83
2022/05/04 08:52:09;;;;;;;3.53;1.88;;;11.70;49.40;;;;;;4976813;28;20030;-82
2022/05/04 08:54:35;;;;;;;2.63;1.63;;;11.00;51.70;;;;;;4959282;28;20034;-83
2022/05/04 08:57:00;;;;;;;3.65;2.33;;;10.60;53.90;;;;;;4977271;28;20104;-82
2022/05/04 08:59:28;;;;;;;3.80;1.77;;;10.30;55.70;;;;;;4959299;28;20031;-81
2022/05/04 09:01:54;;;;;;;5.78;2.35;;;10.00;57.20;;;;;;4979151;28;20026;-82
2022/05/04 09:04:20;;;;;;;4.38;2.00;;;9.30;60.90;;;;;;4984319;28;20084;-81
2022/05/04 09:06:45;;;;;;;2.10;1.27;;;9.00;63.50;;;;;;4986606;28;20034;-81
2022/05/04 09:09:11;;;;;;;2.65;1.58;;;9.60;63.90;;;;;;4983889;28;20086;-84
2022/05/04 09:11:39;;;;;;;4.55;1.83;;;11.00;62.00;;;;;;4978309;28;20050;-86
2022/05/04 09:14:10;;;;;;;2.53;1.23;;;11.10;56.80;;;;;;4978391;28;20045;-81
2022/05/04 09:16:36;;;;;;;5.80;1.98;;;10.50;58.60;;;;;;4976475;28;20495;-83
2022/05/04 09:19:10;;;;;;;3.70;1.80;;;9.90;60.20;;;;;;4976660;28;20027;-83
2022/05/04 09:21:36;;;;;;;1.75;1.00;;;9.60;61.00;;;;;;4976406;28;20025;-83
2022/05/04 09:24:03;;;;;;;3.60;1.70;;;9.40;61.50;;;;;;4959515;28;20058;-82
2022/05/04 09:26:29;;;;;;;5.32;1.80;;;9.10;62.60;;;;;;4959602;28;20472;-83
2022/05/04 09:28:59;;;;;;;4.43;1.83;;;9.00;63.00;;;;;;4976331;28;20043;-82
2022/05/04 09:31:27;;;;;;;2.75;2.40;;;8.90;64.30;;;;;;4976736;28;20070;-82
2022/05/04 09:34:07;;;;;;;1.92;1.40;;;8.70;64.80;;;;;;4976416;28;20075;-82
2022/05/04 09:45:12;;;;;;;5.30;1.75;;;9.10;61.00;;;;;;4976049;28;20070;-82
2022/05/04 09:47:39;;;;;;;4.63;1.40;;;10.30;60.10;;;;;;4978173;28;20054;-82
2022/05/04 09:50:05;;;;;;;5.43;1.83;;;12.80;55.30;;;;;;4963486;28;20087;-81
2022/05/04 09:52:43;;;;;;;6.32;1.95;;;15.20;49.70;;;;;;4969832;29;20054;-82
2022/05/04 09:55:22;;;;;;;4.43;1.67;;;17.10;45.00;;;;;;4968279;29;20027;-82
2022/05/04 09:57:48;;;;;;;5.07;2.15;;;18.60;41.80;;;;;;4964107;29;20038;-83
2022/05/04 10:00:18;;;;;;;4.47;2.10;;;19.80;40.00;;;;;;4958021;29;20043;-81
2022/05/04 10:02:46;;;;;;;5.38;2.38;;;19.90;37.20;;;;;;4947161;28;20047;-83
2022/05/04 10:05:12;;;;;;;2.35;1.63;;;19.20;36.90;;;;;;4977355;28;20070;-85
2022/05/04 10:07:39;;;;;;;3.45;2.35;;;18.70;37.40;;;;;;4961320;28;20052;-82
2022/05/04 10:10:06;;;;;;;5.70;2.20;;;18.30;37.70;;;;;;4980468;28;20046;-82
2022/05/04 10:12:38;;;;;;;7.05;2.40;;;18.70;37.60;;;;;;4976691;28;20027;-83
2022/05/04 10:15:10;;;;;;;5.47;2.33;;;19.80;36.00;;;;;;4958559;28;20163;-82
2022/05/04 10:17:49;;;;;;;4.28;3.05;;;19.00;35.90;;;;;;4957000;28;20034;-82
2022/05/04 10:20:21;;;;;;;3.53;2.50;;;18.10;37.30;;;;;;4958071;28;20027;-81
2022/05/04 10:22:59;;;;;;;7.30;2.08;;;16.70;38.40;;;;;;4975698;28;20052;-81
2022/05/04 10:25:26;;;;;;;3.10;1.80;;;15.10;40.30;;;;;;4958231;28;20045;-83
2022/05/04 10:28:07;;;;;;;3.15;1.77;;;13.90;42.20;;;;;;4976340;28;20018;-82
2022/05/04 10:30:36;;;;;;;2.72;2.10;;;13.10;44.00;;;;;;4959571;28;20563;-82
2022/05/04 10:33:11;;;;;;;3.78;2.30;;;12.70;45.30;;;;;;4976233;28;20015;-84
2022/05/04 10:35:43;;;;;;;2.95;1.80;;;12.50;46.00;;;;;;4953501;28;20090;-83
2022/05/04 10:38:41;;;;;;;4.97;2.45;;;12.20;47.20;;;;;;4955905;29;20030;-81
2022/05/04 10:41:09;;;;;;;4.95;1.85;;;11.00;48.70;;;;;;4941290;29;20035;-81
2022/05/04 10:43:41;;;;;;;;;;;10.10;49.80;;;;;;4956064;29;20038;-81
2022/05/04 10:46:07;;;;;;;5.68;2.20;;;9.40;51.00;;;;;;4955547;29;19993;-81
2022/05/04 10:48:33;;;;;;;2.88;1.70;;;8.70;53.80;;;;;;4955132;29;20175;-82
2022/05/04 10:51:21;;;;;;;3.33;1.77;;;8.30;55.20;;;;;;4971197;28;20031;-84
2022/05/04 10:53:51;;;;;;;2.65;1.60;;;8.20;57.50;;;;;;4957462;28;20045;-83
2022/05/04 10:56:25;;;;;;;4.80;1.40;;;7.90;61.10;;;;;;4956955;28;20038;-83
2022/05/04 10:58:51;;;;;;;2.33;1.52;;;7.50;63.30;;;;;;4974675;28;20477;-81
2022/05/04 11:01:23;;;;;;;2.70;2.17;;;7.20;65.90;;;;;;4974807;28;20034;-82
2022/05/04 11:04:23;;;;;;;4.57;2.25;;;6.90;68.30;;;;;;4974578;28;20034;-83
2022/05/04 11:07:04;;;;;;;3.55;1.42;;;6.80;69.40;;;;;;4974637;28;20105;-81
2022/05/04 11:09:39;;;;;;;2.90;1.27;;;6.80;70.80;;;;;;4974235;28;20039;-82
2022/05/04 11:12:08;;;;;;;2.05;1.88;;;6.90;71.30;;;;;;4957597;28;20082;-83
2022/05/04 11:14:34;;;;;;;4.82;1.48;;;7.20;70.90;;;;;;4976119;28;20027;-81
2022/05/04 11:17:02;;;;;;;2.88;1.55;;;7.60;70.20;;;;;;4975923;28;20034;-82
2022/05/04 11:19:32;;;;;;;1.45;1.20;;;7.80;68.70;;;;;;4974410;28;20031;-81
2022/05/04 11:21:58;;;;;;;3.78;1.20;;;8.00;67.90;;;;;;4973322;28;20103;-84
2022/05/04 11:24:28;;;;;;;4.47;1.45;;;8.50;66.50;;;;;;4974505;28;20054;-85
2022/05/04 11:26:55;;;;;;;2.33;1.30;;;8.80;64.80;;;;;;4956906;28;20120;-82
2022/05/04 11:29:23;;;;;;;5.57;1.80;;;9.10;63.60;;;;;;4974134;28;20031;-82
2022/05/04 11:31:56;;;;;;;;;;;9.10;62.50;;;;;;4975018;28;20555;-82
2022/05/04 11:34:28;;;;;;;2.65;1.50;;;8.90;62.10;;;;;;4953681;29;20382;-84
2022/05/04 11:36:56;;;;;;;4.78;1.58;;;8.70;63.30;;;;;;4954663;29;20385;-84
2022/05/04 11:39:25;;;;;;;3.72;1.55;;;8.70;63.80;;;;;;4970256;28;20031;-83
2022/05/04 11:41:53;;;;;;;8.77;3.35;;;8.70;63.40;;;;;;4974551;28;20026;-85
2022/05/04 11:44:21;;;;;;;1.70;1.58;;;8.80;63.20;;;;;;4976400;28;20492;-83
2022/05/04 11:46:58;;;;;;;2.67;1.70;;;8.80;63.20;;;;;;4976598;28;20030;-83
2022/05/04 11:49:27;;;;;;;3.35;1.73;;;8.70;63.90;;;;;;4973569;28;20031;-85
2022/05/04 11:51:54;;;;;;;6.80;2.40;;;8.70;64.10;;;;;;4973979;28;20034;-84
2022/05/04 11:54:20;;;;;;;3.20;1.95;;;8.90;64.50;;;;;;4973550;28;20097;-83
2022/05/04 11:56:49;;;;;;;3.40;2.05;;;9.00;64.20;;;;;;4956568;28;20027;-84
2022/05/04 11:59:15;;;;;;;3.03;2.00;;;9.20;64.50;;;;;;4974655;28;20023;-83
2022/05/04 12:01:41;;;;;;;2.20;1.88;;;9.20;64.50;;;;;;4974923;28;20609;-82
2022/05/04 12:04:10;;;;;;;3.58;2.70;;;9.20;65.10;;;;;;4977009;28;20091;-83
2022/05/04 12:06:36;;;;;;;3.20;2.30;;;9.00;65.70;;;;;;4962299;28;20038;-83
2022/05/04 12:09:03;;;;;;;9.02;1.95;;;8.80;65.90;;;;;;4964148;28;20039;-80
2022/05/04 12:11:31;;;;;;;5.35;2.55;;;8.60;66.80;;;;;;4962031;28;20046;-83
2022/05/04 12:13:58;;;;;;;3.40;1.85;;;8.30;68.30;;;;;;4959496;28;20034;-83
2022/05/04 12:16:24;;;;;;;3.10;2.43;;;8.20;68.60;;;;;;4976159;28;20380;-84
2022/05/04 12:18:51;;;;;;;4.13;1.88;;;8.20;69.30;;;;;;4958199;28;20496;-83
2022/05/04 12:21:19;;;;;;;4.70;2.53;;;8.20;69.80;;;;;;4975095;28;20082;-84
2022/05/04 12:23:48;;;;;;;2.70;2.28;;;8.30;70.60;;;;;;4957037;28;20420;-82
2022/05/04 12:26:14;;;;;;;4.40;2.70;;;8.40;69.20;;;;;;4973110;28;20030;-83
2022/05/04 12:28:42;;;;;;;4.20;2.17;;;8.50;70.00;;;;;;4995103;28;20527;-86
2022/05/04 12:33:55;;;;;;;4.78;2.65;;;8.80;68.10;;;;;;4975274;28;20086;-81
2022/05/04 12:36:23;;;;;;;6.20;1.92;;;8.90;66.40;;;;;;4960195;28;20022;-80
2022/05/04 12:38:50;;;;;;;4.63;2.30;;;9.10;66.50;;;;;;4983586;28;20023;-82
2022/05/04 12:41:21;;;;;;;5.05;2.53;;;9.40;63.80;;;;;;4981029;28;20073;-84
2022/05/04 12:43:49;;;;;;;3.35;1.75;;;9.50;63.60;;;;;;4975060;28;20402;-81
2022/05/04 12:46:17;;;;;;;4.97;2.20;;;9.50;62.30;;;;;;4975244;28;20034;-83
2022/05/04 12:48:45;;;;;;;10.23;3.50;;;9.30;62.80;;;;;;4975047;28;20039;-83
2022/05/04 12:51:14;;;;;;;3.90;2.15;;;9.00;63.50;;;;;;4956935;28;20031;-83
2022/05/04 12:53:40;;;;;;;3.53;1.73;;;8.90;64.70;;;;;;4973615;28;20109;-84
2022/05/04 12:58:54;;;;;;;5.45;1.35;;;8.70;58.80;;;;;;4974333;28;20041;-84
2022/05/04 13:01:24;;;;;;;3.63;1.63;;;8.60;56.40;;;;;;4973852;28;20082;-84
2022/05/04 13:03:50;;;;;;;1.88;1.40;;;8.50;55.90;;;;;;4974632;28;20110;-84
2022/05/04 13:06:17;;;;;;;3.13;1.40;;;8.50;56.00;;;;;;4974780;28;20042;-83
2022/05/04 13:08:43;;;;;;;2.95;1.98;;;8.40;56.40;;;;;;4958301;28;20091;-84
2022/05/04 13:11:09;;;;;;;13.82;2.83;;;8.40;58.10;;;;;;4978547;28;20027;-83
2022/05/04 13:13:35;;;;;;;4.28;1.90;;;8.30;58.30;;;;;;4982729;28;20535;-83
2022/05/04 13:16:01;;;;;;;5.55;2.10;;;8.30;58.60;;;;;;4960165;28;20027;-84
2022/05/04 13:18:26;;;;;;;3.38;2.05;;;8.30;58.70;;;;;;4978687;28;20023;-81
2022/05/04 13:20:52;;;;;;;3.63;1.60;;;8.20;57.70;;;;;;4981115;28;20030;-83
2022/05/04 13:23:18;;;;;;;2.35;1.08;;;8.20;58.70;;;;;;4960410;28;20023;-84
2022/05/04 13:25:44;;;;;;;1.88;1.00;;;8.00;58.40;;;;;;4976891;28;20027;-83
2022/05/04 13:28:10;;;;;;;7.28;1.80;;;7.80;60.20;;;;;;4976870;28;20037;-85
2022/05/04 13:30:36;;;;;;;1.88;1.30;;;7.50;63.20;;;;;;4976291;28;20053;-85
2022/05/04 13:33:01;;;;;;;2.13;1.23;;;7.50;64.50;;;;;;4975260;28;20369;-83